Time;durP1;ratioP1;P1;durP2;ratioP2;P2;SDS_P1;SDS_P2;PMS_P1;PMS_P2;Temp;Humidity;BMP_temperature;BMP_pressure;BME280_temperature;BME280_humidity;BME280_pressure;Samples;Min_cycle;Max_cycle;Signal;HPM_P1;HPM_P2
2022/11/16 00:02:12;;;;;;;0.10;0.10;;;7.60;99.90;6.50;96121.00;;;;5029757;28;20225;-74
2022/11/16 00:04:41;;;;;;;0.10;0.10;;;7.60;99.90;6.50;96101.00;;;;5019870;28;20207;-74
2022/11/16 00:07:10;;;;;;;0.10;0.10;;;7.60;99.90;6.60;96055.00;;;;5023518;28;20192;-72
2022/11/16 00:09:40;;;;;;;0.10;0.10;;;7.70;99.90;6.60;96116.00;;;;5025111;28;20561;-72
2022/11/16 00:12:11;;;;;;;0.10;0.10;;;7.70;99.90;6.60;96121.00;;;;5031228;28;20203;-73
2022/11/16 00:14:39;;;;;;;0.10;0.10;;;7.60;99.90;6.60;96129.00;;;;5026282;28;20203;-73
2022/11/16 00:17:07;;;;;;;0.10;0.10;;;7.70;99.90;6.60;96114.00;;;;5014873;28;20765;-72
2022/11/16 00:19:35;;;;;;;0.10;0.10;;;7.70;99.90;6.60;96101.00;;;;5024867;28;20194;-74
2022/11/16 00:22:03;;;;;;;0.10;0.10;;;7.70;99.90;6.50;96108.00;;;;5011795;28;20227;-74
2022/11/16 00:24:31;;;;;;;0.10;0.10;;;7.60;99.90;6.40;96104.00;;;;5025887;28;20203;-73
2022/11/16 00:27:01;;;;;;;0.10;0.10;;;7.60;99.90;6.40;96108.00;;;;5024542;28;20199;-72
2022/11/16 00:29:29;;;;;;;0.10;0.10;;;7.50;99.90;6.50;96100.00;;;;5030423;28;20210;-72
2022/11/16 00:31:57;;;;;;;0.10;0.10;;;7.60;99.90;6.40;96095.00;;;;5023558;28;20214;-72
2022/11/16 00:34:27;;;;;;;0.10;0.10;;;7.50;99.90;6.40;96088.00;;;;5030266;28;20218;-72
2022/11/16 00:36:55;;;;;;;0.10;0.10;;;7.40;99.90;6.40;96078.00;;;;5024474;28;20199;-72
2022/11/16 00:39:24;;;;;;;0.10;0.10;;;7.50;99.90;6.40;96080.00;;;;5013993;28;20218;-72
2022/11/16 00:41:52;;;;;;;0.10;0.10;;;7.50;99.90;6.40;96084.00;;;;5025670;28;20222;-73
2022/11/16 00:44:22;;;;;;;0.10;0.10;;;7.50;99.90;6.40;96088.00;;;;5026863;28;20213;-74
2022/11/16 00:46:50;;;;;;;0.10;0.10;;;7.50;99.90;6.50;96073.00;;;;5023012;28;20243;-73
2022/11/16 00:49:18;;;;;;;0.10;0.10;;;7.50;99.90;6.30;96078.00;;;;5029468;28;20319;-73
2022/11/16 00:51:46;;;;;;;0.10;0.10;;;7.40;99.90;6.30;96090.00;;;;5019712;28;20203;-74
2022/11/16 00:54:14;;;;;;;0.10;0.10;;;7.40;99.90;6.20;96070.00;;;;5025600;28;20223;-73
2022/11/16 00:56:43;;;;;;;0.10;0.10;;;7.30;99.90;6.10;96060.00;;;;5011779;28;20210;-71
2022/11/16 00:59:11;;;;;;;0.10;0.10;;;7.20;99.90;6.00;96054.00;;;;5024426;28;20199;-72
2022/11/16 01:01:43;;;;;;;0.10;0.10;;;7.10;99.90;6.00;96047.00;;;;5026031;28;20230;-71
2022/11/16 01:04:12;;;;;;;0.10;0.10;;;7.10;99.90;5.90;96003.00;;;;5008910;28;20222;-71
2022/11/16 01:06:40;;;;;;;0.10;0.10;;;7.00;99.90;5.90;96034.00;;;;5019589;28;21342;-71
2022/11/16 01:09:08;;;;;;;0.10;0.10;;;6.90;99.90;5.80;96033.00;;;;5023751;28;20206;-72
2022/11/16 01:14:19;;;;;;;0.10;0.10;;;6.90;99.90;5.80;96043.00;;;;4999285;28;20199;-70
2022/11/16 01:16:50;;;;;;;0.05;0.05;;;6.90;99.90;5.80;96037.00;;;;5029092;28;20257;-72
2022/11/16 01:19:20;;;;;;;0.10;0.10;;;6.90;99.90;5.70;96024.00;;;;5025193;28;20720;-71
2022/11/16 01:21:48;;;;;;;0.10;0.10;;;6.80;99.90;5.60;96021.00;;;;5025262;28;20219;-72
2022/11/16 01:24:16;;;;;;;0.10;0.10;;;6.70;99.90;5.70;96024.00;;;;5002779;28;20706;-72
2022/11/16 01:26:44;;;;;;;0.10;0.10;;;6.80;99.90;5.70;96012.00;;;;5031587;28;20202;-72
2022/11/16 01:29:13;;;;;;;0.10;0.10;;;6.70;99.90;5.60;96006.00;;;;5033295;28;20673;-71
2022/11/16 01:31:47;;;;;;;0.10;0.10;;;6.70;99.90;5.50;96015.00;;;;5031980;28;20194;-72
2022/11/16 01:34:16;;;;;;;0.10;0.10;;;6.70;99.90;5.50;96007.00;;;;5042519;28;20218;-72
2022/11/16 01:36:45;;;;;;;0.10;0.10;;;6.60;99.90;5.50;96006.00;;;;5025595;28;20203;-74
2022/11/16 01:39:15;;;;;;;0.10;0.10;;;6.70;99.90;5.60;96005.00;;;;5016045;28;20549;-72
2022/11/16 01:41:53;;;;;;;0.10;0.10;;;6.70;99.90;5.60;96007.00;;;;5010460;28;20215;-72
2022/11/16 01:45:00;;;;;;;0.10;0.10;;;6.70;99.90;5.60;95987.00;;;;5016586;28;20235;-73
2022/11/16 01:47:29;;;;;;;0.10;0.10;;;6.70;99.90;5.60;95998.00;;;;5006449;28;20207;-73
2022/11/16 01:50:08;;;;;;;0.10;0.10;;;6.70;99.90;5.60;95985.00;;;;5014891;28;20282;-73
2022/11/16 01:52:47;;;;;;;0.10;0.10;;;6.70;99.90;5.60;95985.00;;;;5014039;28;20222;-73
2022/11/16 01:55:16;;;;;;;0.10;0.10;;;6.70;99.90;5.60;95915.00;;;;5036728;28;20198;-72
2022/11/16 01:57:57;;;;;;;0.10;0.10;;;6.70;99.90;5.50;95990.00;;;;5027110;28;20202;-72
2022/11/16 02:00:28;;;;;;;0.10;0.10;;;6.60;99.90;5.60;95994.00;;;;5013843;28;20195;-72
2022/11/16 02:03:10;;;;;;;0.10;0.10;;;6.70;99.90;5.50;95989.00;;;;5026100;28;20227;-73
2022/11/16 02:06:13;;;;;;;0.10;0.10;;;6.60;99.90;5.50;95994.00;;;;5025416;28;20239;-73
2022/11/16 02:12:23;;;;;;;0.10;0.10;;;6.60;99.90;5.50;95996.00;;;;5010203;28;20257;-73
2022/11/16 02:15:09;;;;;;;0.10;0.10;;;6.60;99.90;5.50;95996.00;;;;5014971;28;20206;-72
2022/11/16 02:17:51;;;;;;;0.10;0.10;;;6.60;99.90;5.50;95990.00;;;;5030509;28;20230;-72
2022/11/16 02:20:52;;;;;;;0.10;0.10;;;6.60;99.90;5.50;95983.00;;;;5010808;28;20195;-72
2022/11/16 02:24:02;;;;;;;0.10;0.10;;;6.60;99.90;5.50;95980.00;;;;5010560;28;20224;-73
2022/11/16 02:27:16;;;;;;;0.10;0.10;;;6.60;99.90;5.50;95922.00;;;;5014650;28;20606;-72
2022/11/16 02:29:51;;;;;;;0.10;0.10;;;6.60;99.90;5.50;95964.00;;;;5031025;28;20253;-72
2022/11/16 02:32:28;;;;;;;0.10;0.10;;;6.60;99.90;5.40;95949.00;;;;5016494;28;20230;-73
2022/11/16 02:35:04;;;;;;;0.10;0.10;;;6.60;99.90;5.30;95960.00;;;;5027531;28;20214;-72
2022/11/16 02:37:40;;;;;;;0.10;0.10;;;6.50;99.90;5.30;95970.00;;;;5021565;28;20203;-73
2022/11/16 02:40:14;;;;;;;0.10;0.10;;;6.40;99.90;5.30;95896.00;;;;5030990;28;20191;-73
2022/11/16 02:42:51;;;;;;;0.10;0.10;;;6.40;99.90;5.20;95954.00;;;;4997515;28;20230;-73
2022/11/16 02:45:25;;;;;;;0.10;0.10;;;6.30;99.90;5.20;95958.00;;;;5029326;28;20670;-73
2022/11/16 02:47:59;;;;;;;0.10;0.10;;;6.30;99.90;5.30;95972.00;;;;5027734;28;20199;-72
2022/11/16 02:50:30;;;;;;;0.10;0.10;;;6.40;99.90;5.20;95975.00;;;;5028940;28;20191;-72
2022/11/16 02:52:58;;;;;;;0.10;0.10;;;6.30;99.90;5.20;95975.00;;;;5044254;28;20223;-72
2022/11/16 02:55:33;;;;;;;0.10;0.10;;;6.30;99.90;5.20;95974.00;;;;5038492;28;20191;-75
2022/11/16 02:58:05;;;;;;;0.10;0.10;;;6.30;99.90;5.20;95977.00;;;;5019280;28;20199;-72
2022/11/16 03:00:45;;;;;;;0.10;0.10;;;6.30;99.90;5.20;95983.00;;;;5021107;28;20206;-73
2022/11/16 03:03:29;;;;;;;0.10;0.10;;;6.30;99.90;5.20;95973.00;;;;5009496;28;20242;-73
2022/11/16 03:06:06;;;;;;;0.10;0.10;;;6.30;99.90;5.20;95986.00;;;;5021808;28;20195;-72
2022/11/16 03:08:39;;;;;;;0.10;0.10;;;6.30;99.90;5.30;95989.00;;;;5023145;28;20697;-72
2022/11/16 03:14:05;;;;;;;0.10;0.10;;;6.40;99.90;5.20;95950.00;;;;5029634;28;20223;-75
2022/11/16 03:16:39;;;;;;;0.10;0.10;;;6.30;99.90;5.20;95951.00;;;;5014735;28;20852;-73
2022/11/16 03:19:13;;;;;;;0.10;0.10;;;6.30;99.90;5.10;95949.00;;;;5005526;28;20206;-72
2022/11/16 03:21:48;;;;;;;0.10;0.10;;;6.30;99.90;5.10;95946.00;;;;5021837;28;20199;-72
2022/11/16 03:24:17;;;;;;;0.10;0.10;;;6.20;99.90;5.10;95933.00;;;;5033115;28;20230;-73
2022/11/16 03:26:53;;;;;;;0.10;0.10;;;6.20;99.90;5.00;95936.00;;;;5027996;28;20192;-72
2022/11/16 03:29:30;;;;;;;0.10;0.10;;;6.20;99.90;4.90;95934.00;;;;5022804;28;20191;-72
2022/11/16 03:32:12;;;;;;;0.10;0.10;;;6.00;99.90;4.90;95924.00;;;;5023993;28;20199;-72
2022/11/16 03:34:47;;;;;;;0.10;0.10;;;6.00;99.90;4.90;95936.00;;;;5010869;28;20202;-72
2022/11/16 03:37:16;;;;;;;0.10;0.10;;;6.00;99.90;4.80;95944.00;;;;5027283;28;20199;-74
2022/11/16 03:39:45;;;;;;;0.10;0.10;;;6.00;99.90;4.80;95899.00;;;;5026416;28;20204;-72
2022/11/16 03:42:14;;;;;;;0.10;0.10;;;6.00;99.90;4.80;95946.00;;;;5027459;28;20757;-73
2022/11/16 03:44:46;;;;;;;0.10;0.10;;;5.90;99.90;4.80;95938.00;;;;5009898;28;20312;-73
2022/11/16 03:47:16;;;;;;;0.03;0.03;;;5.90;99.90;4.70;95932.00;;;;5013796;28;20210;-72
2022/11/16 03:49:46;;;;;;;0.10;0.10;;;5.90;99.90;4.70;95939.00;;;;5026087;28;20209;-72
2022/11/16 03:52:18;;;;;;;0.10;0.10;;;5.80;99.90;4.60;95955.00;;;;5018449;28;20218;-73
2022/11/16 03:54:49;;;;;;;0.10;0.10;;;5.80;99.90;4.60;95946.00;;;;5005215;28;20211;-73
2022/11/16 03:57:17;;;;;;;0.10;0.10;;;5.80;99.90;4.60;95894.00;;;;5016053;28;20230;-73
2022/11/16 03:59:52;;;;;;;0.10;0.10;;;5.80;99.90;4.60;95965.00;;;;5003103;28;20195;-73
2022/11/16 04:02:21;;;;;;;0.10;0.10;;;5.80;99.90;4.70;95952.00;;;;5007640;28;20234;-72
2022/11/16 04:24:35;;;;;;;0.10;0.10;;;5.90;99.90;4.80;95962.00;;;;5027106;28;20223;-72
2022/11/16 04:29:58;;;;;;;0.10;0.10;;;5.90;99.90;4.70;95953.00;;;;5027858;28;20249;-73
2022/11/16 04:38:01;;;;;;;0.10;0.10;;;5.80;99.90;4.40;95953.00;;;;5022132;28;20211;-73
2022/11/16 04:40:33;;;;;;;0.10;0.10;;;5.80;99.90;4.60;95960.00;;;;5029322;28;20665;-72
2022/11/16 04:43:02;;;;;;;0.10;0.10;;;5.80;99.90;4.60;95957.00;;;;5029527;28;20328;-73
2022/11/16 04:48:23;;;;;;;0.10;0.10;;;5.80;99.90;4.60;95956.00;;;;4978483;28;20198;-73
2022/11/16 04:50:55;;;;;;;0.10;0.10;;;5.80;99.90;4.60;95957.00;;;;5027276;28;20605;-73
2022/11/16 04:53:26;;;;;;;0.10;0.10;;;5.70;99.90;4.50;95947.00;;;;5018380;28;20298;-72
2022/11/16 04:56:12;;;;;;;0.10;0.10;;;5.70;99.90;4.60;95938.00;;;;5007276;28;20196;-72
2022/11/16 04:58:41;;;;;;;0.10;0.10;;;5.70;99.90;4.50;95801.00;;;;5020648;28;20290;-72
2022/11/16 05:01:10;;;;;;;0.10;0.10;;;5.60;99.90;4.50;95787.00;;;;5016723;28;20195;-72
2022/11/16 05:03:38;;;;;;;0.10;0.10;;;5.60;99.90;4.50;95792.00;;;;5030923;28;20234;-72
2022/11/16 05:06:08;;;;;;;0.10;0.10;;;5.60;99.90;4.40;95801.00;;;;5024369;28;20191;-72
2022/11/16 05:08:37;;;;;;;0.10;0.10;;;5.60;99.90;4.40;95797.00;;;;5016790;28;20253;-71
2022/11/16 05:11:05;;;;;;;0.10;0.10;;;5.60;99.90;4.40;95779.00;;;;5029156;28;20214;-72
2022/11/16 05:13:34;;;;;;;0.10;0.10;;;5.60;99.90;4.50;95799.00;;;;5008660;28;20226;-72
2022/11/16 05:16:02;;;;;;;0.10;0.10;;;5.70;99.90;4.50;95807.00;;;;5008201;28;20203;-72
2022/11/16 05:18:31;;;;;;;0.00;0.00;;;5.70;99.90;4.50;95814.00;;;;5035383;28;20249;-72
2022/11/16 05:20:59;;;;;;;0.10;0.10;;;5.70;99.90;4.50;95807.00;;;;5030534;28;20199;-73
2022/11/16 05:26:20;;;;;;;0.10;0.10;;;5.60;99.90;4.50;95809.00;;;;5030156;28;20204;-71
2022/11/16 05:28:49;;;;;;;0.10;0.10;;;5.60;99.90;4.50;95811.00;;;;5043041;28;20195;-72
2022/11/16 05:31:17;;;;;;;0.10;0.10;;;5.70;99.90;4.50;95835.00;;;;5031022;28;20215;-71
2022/11/16 05:33:45;;;;;;;0.10;0.10;;;5.60;99.90;4.50;95841.00;;;;5019691;28;20305;-72
2022/11/16 05:36:15;;;;;;;0.10;0.10;;;5.60;99.90;4.40;95844.00;;;;5019581;28;20203;-71
2022/11/16 05:38:44;;;;;;;0.00;0.00;;;5.60;99.90;4.40;95876.00;;;;5019986;28;20217;-71
2022/11/16 05:41:13;;;;;;;0.00;0.00;;;5.60;99.90;4.40;95970.00;;;;5034757;28;20203;-72
2022/11/16 05:43:41;;;;;;;0.10;0.10;;;5.60;99.90;4.40;96003.00;;;;5017296;28;20226;-72
2022/11/16 05:46:16;;;;;;;0.10;0.10;;;5.60;99.90;4.40;95918.00;;;;5017398;28;20568;-72
2022/11/16 05:48:45;;;;;;;0.10;0.10;;;5.50;99.90;4.40;95914.00;;;;5015557;28;20195;-72
2022/11/16 05:51:14;;;;;;;0.10;0.10;;;5.60;99.90;4.40;95905.00;;;;5019238;28;20650;-72
2022/11/16 05:53:44;;;;;;;0.10;0.10;;;5.60;99.90;4.30;96015.00;;;;5009477;28;20369;-71
2022/11/16 05:56:18;;;;;;;0.10;0.10;;;5.50;99.90;4.40;95987.00;;;;5023711;28;20203;-72
2022/11/16 05:58:46;;;;;;;0.10;0.10;;;5.60;99.90;4.40;96020.00;;;;5021769;28;20687;-73
2022/11/16 06:01:15;;;;;;;0.10;0.10;;;5.60;99.90;4.40;95921.00;;;;5030010;28;20315;-73
2022/11/16 06:03:43;;;;;;;0.10;0.10;;;5.60;99.90;4.40;95916.00;;;;5012999;28;20223;-72
2022/11/16 06:06:12;;;;;;;0.10;0.10;;;5.60;99.90;4.40;95928.00;;;;5010675;28;20291;-73
2022/11/16 06:08:41;;;;;;;0.10;0.10;;;5.60;99.90;4.40;95929.00;;;;5013138;28;20207;-72
2022/11/16 06:11:17;;;;;;;0.10;0.10;;;5.50;99.90;4.30;95931.00;;;;5016019;28;20230;-72
2022/11/16 06:13:45;;;;;;;0.10;0.10;;;5.50;99.90;4.30;95729.00;;;;5009898;28;20223;-73
2022/11/16 06:16:14;;;;;;;0.10;0.10;;;5.50;99.90;4.30;95717.00;;;;5023786;28;20200;-73
2022/11/16 06:18:45;;;;;;;0.10;0.10;;;5.50;99.90;4.30;95749.00;;;;5029236;28;20203;-73
2022/11/16 06:21:18;;;;;;;0.10;0.10;;;5.50;99.90;4.40;95763.00;;;;5015125;28;20276;-73
2022/11/16 06:23:48;;;;;;;0.10;0.10;;;5.60;99.90;4.40;95726.00;;;;5005223;28;20246;-73
2022/11/16 06:26:18;;;;;;;0.10;0.10;;;5.60;99.90;4.40;95754.00;;;;5029630;28;20196;-72
2022/11/16 06:28:46;;;;;;;0.10;0.10;;;5.60;99.90;4.40;95775.00;;;;5027350;28;20195;-75
2022/11/16 06:31:15;;;;;;;0.00;0.00;;;5.60;99.90;4.40;95775.00;;;;5029035;28;20646;-72
2022/11/16 06:33:43;;;;;;;0.10;0.10;;;5.60;99.90;4.50;95765.00;;;;5010307;28;20223;-72
2022/11/16 06:36:19;;;;;;;0.10;0.10;;;5.60;99.90;4.50;95751.00;;;;5017522;28;20202;-72
2022/11/16 06:38:48;;;;;;;0.10;0.10;;;5.60;99.90;4.50;95748.00;;;;5007922;28;20218;-72
2022/11/16 06:41:18;;;;;;;0.10;0.10;;;5.60;99.90;4.50;95746.00;;;;5015425;28;20680;-72
2022/11/16 06:43:49;;;;;;;0.10;0.10;;;5.60;99.90;4.50;95766.00;;;;5008001;28;20219;-72
2022/11/16 06:46:20;;;;;;;0.05;0.05;;;5.60;99.90;4.40;95758.00;;;;5007183;28;20287;-72
2022/11/16 06:48:48;;;;;;;0.10;0.10;;;5.60;99.90;4.40;95755.00;;;;5024491;28;20246;-73
2022/11/16 06:51:18;;;;;;;0.10;0.10;;;5.60;99.90;4.40;95759.00;;;;5029355;28;20196;-71
2022/11/16 06:53:47;;;;;;;0.10;0.10;;;5.60;99.90;4.40;95756.00;;;;5003227;28;20560;-72
2022/11/16 06:56:16;;;;;;;0.10;0.10;;;5.50;99.90;4.30;95730.00;;;;5020875;28;20250;-73
2022/11/16 06:58:51;;;;;;;0.10;0.10;;;5.50;99.90;4.40;95772.00;;;;5027361;28;20243;-72
2022/11/16 07:01:21;;;;;;;0.10;0.10;;;5.50;99.90;4.30;95777.00;;;;5022523;28;20192;-72
2022/11/16 07:03:52;;;;;;;0.10;0.10;;;5.40;99.90;4.20;95737.00;;;;5027585;28;20559;-74
2022/11/16 07:06:21;;;;;;;0.00;0.00;;;5.40;99.90;4.30;95749.00;;;;5004950;28;20848;-75
2022/11/16 07:08:49;;;;;;;0.10;0.10;;;5.50;99.90;4.30;95738.00;;;;5023977;28;20204;-73
2022/11/16 07:11:22;;;;;;;0.10;0.10;;;5.50;99.90;4.40;95780.00;;;;5028041;28;20195;-75
2022/11/16 07:13:53;;;;;;;0.10;0.10;;;5.50;99.90;4.40;95772.00;;;;5007481;28;20215;-73
2022/11/16 07:16:21;;;;;;;0.10;0.10;;;5.50;99.90;4.40;95799.00;;;;5026642;28;20216;-74
2022/11/16 07:18:58;;;;;;;0.10;0.10;;;5.60;99.90;4.40;95790.00;;;;5027593;28;20310;-75
2022/11/16 07:21:29;;;;;;;0.10;0.10;;;5.60;99.90;4.40;95776.00;;;;5011107;28;20214;-74
2022/11/16 07:23:59;;;;;;;0.10;0.10;;;5.50;99.90;4.40;95929.00;;;;5012916;28;20628;-74
2022/11/16 07:26:29;;;;;;;0.10;0.10;;;5.60;99.90;4.40;95794.00;;;;5029119;28;20230;-74
2022/11/16 07:29:04;;;;;;;0.10;0.10;;;5.60;99.90;4.40;95776.00;;;;5025943;28;20573;-75
2022/11/16 07:31:35;;;;;;;0.10;0.10;;;5.60;99.90;4.40;95777.00;;;;5026394;28;20207;-74
2022/11/16 07:34:32;;;;;;;0.10;0.10;;;5.60;99.90;4.40;95768.00;;;;5025916;28;20211;-74
2022/11/16 07:37:09;;;;;;;0.10;0.10;;;5.60;99.90;4.40;95775.00;;;;5025017;28;20559;-74
2022/11/16 07:39:37;;;;;;;0.00;0.00;;;5.60;99.90;4.40;95772.00;;;;5002750;28;20219;-73
2022/11/16 07:42:11;;;;;;;0.10;0.10;;;5.60;99.90;4.40;95767.00;;;;5027434;28;20195;-73
2022/11/16 07:44:51;;;;;;;0.10;0.10;;;5.60;99.90;4.50;95755.00;;;;5013358;28;20214;-74
2022/11/16 07:47:20;;;;;;;0.00;0.00;;;5.60;99.90;4.50;95761.00;;;;5023674;28;20202;-75
2022/11/16 07:49:48;;;;;;;0.10;0.10;;;5.60;99.90;4.50;95744.00;;;;5028248;28;20196;-75
2022/11/16 07:52:22;;;;;;;0.10;0.10;;;5.70;99.90;4.50;95909.00;;;;5021715;28;20222;-74
2022/11/16 07:54:56;;;;;;;0.10;0.10;;;5.70;99.90;4.60;95725.00;;;;5025078;28;20202;-76
2022/11/16 07:57:26;;;;;;;0.10;0.10;;;5.70;99.90;4.50;95727.00;;;;5014806;28;20387;-74
2022/11/16 07:59:58;;;;;;;0.10;0.10;;;5.70;99.90;4.50;95757.00;;;;5022347;28;20214;-74
2022/11/16 08:02:29;;;;;;;0.10;0.10;;;5.70;99.90;4.50;95734.00;;;;5023537;28;20253;-74
2022/11/16 08:04:57;;;;;;;0.10;0.10;;;5.70;99.90;4.50;95715.00;;;;5025380;28;20225;-74
2022/11/16 08:07:28;;;;;;;0.10;0.10;;;5.70;99.90;4.50;95722.00;;;;5012644;28;20234;-76
2022/11/16 08:09:56;;;;;;;0.10;0.10;;;5.70;99.90;4.50;95715.00;;;;5019885;28;20367;-75
2022/11/16 08:12:25;;;;;;;0.05;0.05;;;5.70;99.90;4.60;95710.00;;;;5026028;28;20302;-74
2022/11/16 08:14:55;;;;;;;0.10;0.10;;;5.70;99.90;4.60;95744.00;;;;5029245;28;20199;-73
2022/11/16 08:17:25;;;;;;;0.10;0.10;;;5.70;99.90;4.70;95742.00;;;;5024071;28;20265;-73
2022/11/16 08:19:54;;;;;;;0.10;0.10;;;5.80;99.90;4.70;95745.00;;;;5024033;28;20214;-73
2022/11/16 08:22:22;;;;;;;0.10;0.10;;;5.80;99.90;4.60;95734.00;;;;5028388;28;20223;-74
2022/11/16 08:24:50;;;;;;;0.10;0.10;;;5.80;99.90;4.60;95731.00;;;;5011765;28;20202;-74
2022/11/16 08:27:19;;;;;;;0.10;0.10;;;5.80;99.90;4.60;95722.00;;;;5030862;28;20199;-76
2022/11/16 08:29:51;;;;;;;0.08;0.08;;;5.80;99.90;4.70;95673.00;;;;5005561;28;20225;-77
2022/11/16 08:32:20;;;;;;;0.10;0.10;;;5.80;99.90;4.70;95708.00;;;;5028700;28;20215;-76
2022/11/16 08:34:51;;;;;;;0.10;0.10;;;5.80;99.90;4.80;95711.00;;;;5025029;28;20203;-76
2022/11/16 08:37:19;;;;;;;0.10;0.10;;;5.90;99.90;4.80;95706.00;;;;5016562;28;20215;-75
2022/11/16 08:39:48;;;;;;;0.10;0.10;;;5.90;99.90;4.80;95704.00;;;;5011530;28;20199;-75
2022/11/16 08:42:16;;;;;;;0.10;0.10;;;5.90;99.90;4.80;95697.00;;;;5013264;28;20225;-74
2022/11/16 08:44:47;;;;;;;0.10;0.10;;;5.90;99.90;4.80;95734.00;;;;5028941;28;20226;-75
2022/11/16 08:47:18;;;;;;;0.10;0.10;;;5.90;99.90;4.80;95717.00;;;;5013143;28;20799;-76
2022/11/16 08:49:56;;;;;;;0.10;0.10;;;5.90;99.90;4.90;95732.00;;;;5019275;28;20665;-76
2022/11/16 08:52:27;;;;;;;0.10;0.10;;;6.00;99.90;4.90;95750.00;;;;5014269;28;20219;-74
2022/11/16 08:54:56;;;;;;;0.10;0.10;;;6.00;99.90;4.80;95734.00;;;;5004589;28;20684;-74
2022/11/16 08:57:24;;;;;;;0.10;0.10;;;6.00;99.90;4.80;95729.00;;;;4998435;28;20612;-77
2022/11/16 08:59:57;;;;;;;0.10;0.10;;;5.90;99.90;4.80;95739.00;;;;5022383;28;20199;-74
2022/11/16 09:02:25;;;;;;;0.10;0.10;;;5.90;99.90;4.80;95738.00;;;;5028632;28;20222;-74
2022/11/16 09:04:56;;;;;;;0.10;0.10;;;5.90;99.90;4.70;95738.00;;;;5019327;28;20662;-74
2022/11/16 09:07:24;;;;;;;0.08;0.08;;;5.80;99.90;4.70;95767.00;;;;5030133;28;20215;-74
2022/11/16 09:09:52;;;;;;;0.10;0.10;;;5.80;99.90;4.50;95742.00;;;;5022976;28;20538;-74
2022/11/16 09:12:20;;;;;;;0.10;0.10;;;5.70;99.90;4.50;95742.00;;;;5030001;28;20219;-74
2022/11/16 09:14:48;;;;;;;0.10;0.10;;;5.70;99.90;4.50;95736.00;;;;5022735;28;20241;-74
2022/11/16 09:17:17;;;;;;;0.05;0.05;;;5.60;99.90;4.50;95744.00;;;;5028597;28;20576;-74
2022/11/16 09:19:50;;;;;;;0.10;0.10;;;5.60;99.90;4.50;95760.00;;;;5028104;28;20253;-74
2022/11/16 09:22:19;;;;;;;0.10;0.10;;;5.60;99.90;4.50;95753.00;;;;5028479;28;20261;-74
2022/11/16 09:24:47;;;;;;;0.10;0.10;;;5.70;99.90;4.60;95751.00;;;;5028219;28;20768;-74
2022/11/16 09:27:16;;;;;;;0.10;0.10;;;5.70;99.90;4.60;95752.00;;;;5029604;28;20222;-74
2022/11/16 09:29:44;;;;;;;0.03;0.03;;;5.70;99.90;4.60;95775.00;;;;5029428;28;20719;-74
2022/11/16 09:32:12;;;;;;;0.10;0.10;;;5.70;99.90;4.60;95787.00;;;;5024591;28;20192;-74
2022/11/16 09:34:40;;;;;;;0.10;0.10;;;5.80;99.90;4.60;95779.00;;;;5028576;28;20203;-74
2022/11/16 09:37:08;;;;;;;0.03;0.03;;;5.80;99.90;4.70;95782.00;;;;5025486;28;20212;-74
2022/11/16 09:39:38;;;;;;;0.10;0.10;;;5.80;99.90;4.70;95785.00;;;;5019912;28;20199;-76
2022/11/16 09:42:28;;;;;;;0.10;0.10;;;5.80;99.90;4.70;95809.00;;;;5019492;28;20586;-76
2022/11/16 09:45:03;;;;;;;0.00;0.00;;;5.80;99.90;4.70;95738.00;;;;5031076;28;20257;-76
2022/11/16 09:47:47;;;;;;;0.10;0.10;;;5.90;99.90;4.70;95790.00;;;;5028109;28;20265;-76
2022/11/16 09:50:44;;;;;;;0.05;0.05;;;5.90;99.90;4.80;95806.00;;;;5032984;28;20690;-76
2022/11/16 09:53:25;;;;;;;0.00;0.00;;;6.00;99.90;4.90;95785.00;;;;5030173;28;20325;-76
2022/11/16 09:56:00;;;;;;;0.10;0.10;;;5.90;99.90;4.90;95805.00;;;;5032837;28;20205;-76
2022/11/16 09:58:35;;;;;;;0.00;0.00;;;6.00;99.90;4.90;95785.00;;;;5014066;28;20198;-76
2022/11/16 10:01:20;;;;;;;0.03;0.03;;;6.10;99.90;5.00;95777.00;;;;5032535;28;20231;-76
2022/11/16 10:03:55;;;;;;;0.10;0.10;;;6.10;99.90;5.00;95789.00;;;;5033567;28;20219;-74
2022/11/16 10:06:35;;;;;;;0.10;0.10;;;6.10;99.90;5.00;95788.00;;;;5029421;28;20226;-71
2022/11/16 10:09:03;;;;;;;0.05;0.05;;;6.10;99.90;5.00;95780.00;;;;5033872;28;20195;-75
2022/11/16 10:11:59;;;;;;;0.10;0.10;;;6.10;99.90;5.00;95778.00;;;;5031853;28;20191;-74
2022/11/16 10:15:15;;;;;;;0.10;0.10;;;6.10;99.90;4.90;95657.00;;;;5023515;28;20188;-74
2022/11/16 10:18:08;;;;;;;0.10;0.10;;;6.10;99.90;4.90;95673.00;;;;5030584;28;20691;-74
2022/11/16 10:20:59;;;;;;;0.10;0.10;;;6.10;99.90;4.90;95648.00;;;;5031144;28;20543;-74
2022/11/16 10:23:48;;;;;;;0.10;0.10;;;6.10;99.90;4.90;95833.00;;;;5029932;28;20260;-74
2022/11/16 10:26:29;;;;;;;0.10;0.10;;;6.00;99.90;4.80;95593.00;;;;5022149;28;20665;-74
2022/11/16 10:29:21;;;;;;;0.10;0.10;;;6.00;99.90;4.80;95610.00;;;;5029222;28;20191;-74
2022/11/16 10:32:13;;;;;;;0.10;0.10;;;6.00;99.90;4.90;95676.00;;;;5028927;28;20561;-76
2022/11/16 10:34:50;;;;;;;0.00;0.00;;;6.00;99.90;4.90;95716.00;;;;5030392;28;20555;-76
2022/11/16 10:37:19;;;;;;;0.10;0.10;;;6.00;99.90;4.90;95703.00;;;;5031880;28;20199;-76
2022/11/16 10:39:52;;;;;;;0.10;0.10;;;6.00;99.90;4.90;95682.00;;;;5025330;28;20596;-76
2022/11/16 10:42:29;;;;;;;0.10;0.10;;;6.00;99.90;4.90;95675.00;;;;5032063;28;20219;-76
2022/11/16 10:45:06;;;;;;;0.10;0.10;;;6.00;99.90;4.90;95672.00;;;;5031583;28;20540;-76
2022/11/16 10:47:43;;;;;;;0.10;0.10;;;6.10;99.90;4.80;95538.00;;;;5021215;28;20219;-76
2022/11/16 10:50:37;;;;;;;0.10;0.10;;;6.10;99.90;4.90;95515.00;;;;5028045;28;20216;-76
2022/11/16 10:53:05;;;;;;;0.10;0.10;;;6.10;99.90;4.80;95575.00;;;;5022551;28;20246;-76
2022/11/16 10:55:33;;;;;;;0.00;0.00;;;6.10;99.90;4.90;95568.00;;;;5025545;28;20650;-76
2022/11/16 10:58:05;;;;;;;0.10;0.10;;;6.10;99.90;4.90;95545.00;;;;5023951;28;20207;-74
2022/11/16 11:00:50;;;;;;;0.10;0.10;;;6.20;99.90;4.90;95585.00;;;;5021541;28;20225;-75
2022/11/16 11:03:31;;;;;;;0.10;0.10;;;6.10;99.90;4.90;95557.00;;;;5023828;28;20234;-75
2022/11/16 11:06:00;;;;;;;0.10;0.10;;;6.10;99.90;4.90;95572.00;;;;5022137;28;20226;-76
2022/11/16 11:08:31;;;;;;;0.10;0.10;;;6.10;99.90;4.90;95507.00;;;;5024064;28;20199;-73
2022/11/16 11:12:36;;;;;;;0.10;0.10;;;6.10;99.90;4.90;95538.00;;;;5021901;28;20647;-73
2022/11/16 11:14:08;;;;;;;0.10;0.10;;;6.10;99.90;4.90;95549.00;;;;5024308;28;20212;-76
2022/11/16 11:16:40;;;;;;;0.10;0.10;;;6.10;99.90;4.90;95550.00;;;;5030400;28;20282;-76
2022/11/16 11:19:19;;;;;;;0.10;0.10;;;6.10;99.90;4.90;95543.00;;;;5030786;28;20210;-77
2022/11/16 11:21:48;;;;;;;0.10;0.10;;;6.10;99.90;4.90;95539.00;;;;5026095;28;20199;-76
2022/11/16 11:24:18;;;;;;;0.10;0.10;;;6.10;99.90;4.90;95524.00;;;;5031546;28;20219;-76
2022/11/16 11:27:06;;;;;;;0.10;0.10;;;6.10;99.90;4.90;95525.00;;;;5023769;28;20227;-76
2022/11/16 11:29:38;;;;;;;0.00;0.00;;;6.20;99.90;5.00;95531.00;;;;5031102;28;20195;-76
2022/11/16 11:32:14;;;;;;;0.00;0.00;;;6.20;99.90;5.00;95534.00;;;;5031568;28;20213;-77
2022/11/16 11:34:53;;;;;;;0.10;0.10;;;6.20;99.90;4.90;95516.00;;;;5032067;28;20191;-76
2022/11/16 11:37:27;;;;;;;0.10;0.10;;;6.10;99.90;5.00;95448.00;;;;5026791;28;20199;-77
2022/11/16 11:40:22;;;;;;;0.05;0.05;;;6.20;99.90;5.00;95522.00;;;;5026067;28;20206;-76
2022/11/16 11:42:59;;;;;;;0.10;0.10;;;6.20;99.90;5.00;95532.00;;;;5031502;28;20721;-76
2022/11/16 11:45:40;;;;;;;0.10;0.10;;;6.20;99.90;5.00;95546.00;;;;5025265;28;20191;-75
2022/11/16 11:48:34;;;;;;;0.10;0.10;;;6.20;99.90;5.00;95508.00;;;;5023846;28;20223;-76
2022/11/16 11:51:12;;;;;;;0.10;0.10;;;6.20;99.90;5.00;95509.00;;;;5028891;28;20658;-76
2022/11/16 11:53:51;;;;;;;0.10;0.10;;;6.20;99.90;5.00;95509.00;;;;5024992;28;20227;-72
2022/11/16 11:56:20;;;;;;;0.10;0.10;;;6.20;99.90;5.00;95531.00;;;;5034385;28;20198;-75
2022/11/16 11:58:50;;;;;;;0.10;0.10;;;6.20;99.90;5.00;95516.00;;;;5027954;28;20206;-75
2022/11/16 12:02:02;;;;;;;0.00;0.00;;;6.30;99.90;5.00;95497.00;;;;5021443;28;20192;-75
2022/11/16 12:05:02;;;;;;;0.10;0.10;;;6.20;99.90;5.00;95524.00;;;;5029018;28;20198;-74
2022/11/16 12:07:54;;;;;;;0.10;0.10;;;6.30;99.90;5.00;95530.00;;;;5029361;28;20211;-75
2022/11/16 12:10:37;;;;;;;0.00;0.00;;;6.20;99.90;5.00;95522.00;;;;5023095;28;20195;-77
2022/11/16 12:13:33;;;;;;;0.00;0.00;;;6.20;99.90;5.00;95524.00;;;;5029529;28;20272;-74
2022/11/16 12:16:17;;;;;;;0.10;0.10;;;6.20;99.90;5.00;95525.00;;;;5029514;28;20202;-75
2022/11/16 12:19:16;;;;;;;0.10;0.10;;;6.30;99.90;5.10;95527.00;;;;5030623;28;20203;-75
2022/11/16 12:22:02;;;;;;;0.10;0.10;;;6.30;99.90;5.20;95532.00;;;;5028048;28;20218;-75
2022/11/16 12:24:55;;;;;;;0.08;0.08;;;6.40;99.90;5.20;95525.00;;;;5028135;28;20199;-73